sensor_id;sensor_type;location;lat;lon;timestamp;pressure;altitude;pressure_sealevel;temperature
24740;BMP280;45234;48.148;17.128;2024-02-21T00:00:54;100850.34;;;8.94
24740;BMP280;45234;48.148;17.128;2024-02-21T00:03:21;100855.72;;;8.92
24740;BMP280;45234;48.148;17.128;2024-02-21T00:05:48;100845.50;;;8.91
24740;BMP280;45234;48.148;17.128;2024-02-21T00:08:15;100843.59;;;8.93
24740;BMP280;45234;48.148;17.128;2024-02-21T00:10:42;100838.22;;;8.94
24740;BMP280;45234;48.148;17.128;2024-02-21T00:13:09;100844.69;;;8.99
24740;BMP280;45234;48.148;17.128;2024-02-21T00:15:36;100839.06;;;9.03
24740;BMP280;45234;48.148;17.128;2024-02-21T00:18:03;100831.44;;;9.02
24740;BMP280;45234;48.148;17.128;2024-02-21T00:20:30;100829.50;;;8.95
24740;BMP280;45234;48.148;17.128;2024-02-21T00:22:57;100829.50;;;8.95
24740;BMP280;45234;48.148;17.128;2024-02-21T00:25:24;100830.13;;;8.89
24740;BMP280;45234;48.148;17.128;2024-02-21T00:27:51;100827.41;;;8.91
24740;BMP280;45234;48.148;17.128;2024-02-21T00:30:18;100831.44;;;8.93
24740;BMP280;45234;48.148;17.128;2024-02-21T00:32:45;100833.38;;;8.83
24740;BMP280;45234;48.148;17.128;2024-02-21T00:35:11;100827.56;;;8.73
24740;BMP280;45234;48.148;17.128;2024-02-21T00:37:39;100829.13;;;8.66
24740;BMP280;45234;48.148;17.128;2024-02-21T00:40:06;100825.88;;;8.64
24740;BMP280;45234;48.148;17.128;2024-02-21T00:42:33;100818.78;;;8.66
24740;BMP280;45234;48.148;17.128;2024-02-21T00:45:00;100811.69;;;8.68
24740;BMP280;45234;48.148;17.128;2024-02-21T00:47:29;100810.56;;;8.71
24740;BMP280;45234;48.148;17.128;2024-02-21T00:49:56;100813.81;;;8.73
24740;BMP280;45234;48.148;17.128;2024-02-21T00:52:23;100804.91;;;8.75
24740;BMP280;45234;48.148;17.128;2024-02-21T00:54:50;100814.63;;;8.73
24740;BMP280;45234;48.148;17.128;2024-02-21T00:57:20;100805.25;;;8.72
24740;BMP280;45234;48.148;17.128;2024-02-21T00:59:47;100800.09;;;8.72
24740;BMP280;45234;48.148;17.128;2024-02-21T01:02:14;100808.31;;;8.76
24740;BMP280;45234;48.148;17.128;2024-02-21T01:04:42;100801.19;;;8.78
24740;BMP280;45234;48.148;17.128;2024-02-21T01:07:09;100803.78;;;8.78
24740;BMP280;45234;48.148;17.128;2024-02-21T01:09:36;100795.88;;;8.71
24740;BMP280;45234;48.148;17.128;2024-02-21T01:12:03;100788.13;;;8.71
24740;BMP280;45234;48.148;17.128;2024-02-21T01:14:30;100797.28;;;8.66
24740;BMP280;45234;48.148;17.128;2024-02-21T01:16:57;100796.31;;;8.58
24740;BMP280;45234;48.148;17.128;2024-02-21T01:19:24;100793.56;;;8.60
24740;BMP280;45234;48.148;17.128;2024-02-21T01:21:51;100787.59;;;8.59
24740;BMP280;45234;48.148;17.128;2024-02-21T01:24:18;100783.22;;;8.60
24740;BMP280;45234;48.148;17.128;2024-02-21T01:26:45;100777.78;;;8.63
24740;BMP280;45234;48.148;17.128;2024-02-21T01:29:13;100786.50;;;8.62
24740;BMP280;45234;48.148;17.128;2024-02-21T01:31:40;100776.31;;;8.60
24740;BMP280;45234;48.148;17.128;2024-02-21T01:34:07;100777.13;;;8.61
24740;BMP280;45234;48.148;17.128;2024-02-21T01:36:34;100778.06;;;8.60
24740;BMP280;45234;48.148;17.128;2024-02-21T01:39:01;100770.19;;;8.61
24740;BMP280;45234;48.148;17.128;2024-02-21T01:41:30;100771.00;;;8.62
24740;BMP280;45234;48.148;17.128;2024-02-21T01:43:58;100765.81;;;8.62
24740;BMP280;45234;48.148;17.128;2024-02-21T01:46:25;100773.06;;;8.67
24740;BMP280;45234;48.148;17.128;2024-02-21T01:48:57;100756.28;;;8.63
24740;BMP280;45234;48.148;17.128;2024-02-21T01:51:25;100760.31;;;8.65
24740;BMP280;45234;48.148;17.128;2024-02-21T01:53:54;100757.09;;;8.63
24740;BMP280;45234;48.148;17.128;2024-02-21T01:56:22;100753.53;;;8.64
24740;BMP280;45234;48.148;17.128;2024-02-21T01:58:50;100745.16;;;8.62
24740;BMP280;45234;48.148;17.128;2024-02-21T02:01:17;100741.59;;;8.63
24740;BMP280;45234;48.148;17.128;2024-02-21T02:03:48;100743.19;;;8.64
24740;BMP280;45234;48.148;17.128;2024-02-21T02:06:16;100740.13;;;8.60
24740;BMP280;45234;48.148;17.128;2024-02-21T02:08:43;100741.59;;;8.63
24740;BMP280;45234;48.148;17.128;2024-02-21T02:11:13;100742.06;;;8.67
24740;BMP280;45234;48.148;17.128;2024-02-21T02:13:40;100745.13;;;8.70
24740;BMP280;45234;48.148;17.128;2024-02-21T02:16:07;100741.75;;;8.70
24740;BMP280;45234;48.148;17.128;2024-02-21T02:18:35;100749.66;;;8.68
24740;BMP280;45234;48.148;17.128;2024-02-21T02:21:03;100751.59;;;8.66
24740;BMP280;45234;48.148;17.128;2024-02-21T02:23:31;100749.66;;;8.68
24740;BMP280;45234;48.148;17.128;2024-02-21T02:26:00;100749.00;;;8.66
24740;BMP280;45234;48.148;17.128;2024-02-21T02:28:30;100755.78;;;8.67
24740;BMP280;45234;48.148;17.128;2024-02-21T02:30:57;100754.53;;;8.71
24740;BMP280;45234;48.148;17.128;2024-02-21T02:33:24;100751.09;;;8.71
24740;BMP280;45234;48.148;17.128;2024-02-21T02:35:51;100750.78;;;8.66
24740;BMP280;45234;48.148;17.128;2024-02-21T02:38:18;100753.06;;;8.60
24740;BMP280;45234;48.148;17.128;2024-02-21T02:40:45;100752.38;;;8.58
24740;BMP280;45234;48.148;17.128;2024-02-21T02:43:12;100753.88;;;8.61
24740;BMP280;45234;48.148;17.128;2024-02-21T02:45:39;100755.78;;;8.67
24740;BMP280;45234;48.148;17.128;2024-02-21T02:48:06;100750.00;;;8.73
24740;BMP280;45234;48.148;17.128;2024-02-21T02:50:33;100749.50;;;8.78
24740;BMP280;45234;48.148;17.128;2024-02-21T02:53:00;100749.34;;;8.79
24740;BMP280;45234;48.148;17.128;2024-02-21T02:55:27;100750.00;;;8.81
24740;BMP280;45234;48.148;17.128;2024-02-21T02:57:55;100748.06;;;8.83
24740;BMP280;45234;48.148;17.128;2024-02-21T03:00:22;100744.97;;;8.88
24740;BMP280;45234;48.148;17.128;2024-02-21T03:02:50;100751.59;;;8.90
24740;BMP280;45234;48.148;17.128;2024-02-21T03:05:20;100746.75;;;8.95
24740;BMP280;45234;48.148;17.128;2024-02-21T03:07:48;100748.88;;;9.00
24740;BMP280;45234;48.148;17.128;2024-02-21T03:10:16;100748.06;;;9.00
24740;BMP280;45234;48.148;17.128;2024-02-21T03:12:45;100753.22;;;9.00
24740;BMP280;45234;48.148;17.128;2024-02-21T03:15:13;100758.72;;;8.97
24740;BMP280;45234;48.148;17.128;2024-02-21T03:17:40;100755.16;;;8.98
24740;BMP280;45234;48.148;17.128;2024-02-21T03:20:08;100755.50;;;8.94
24740;BMP280;45234;48.148;17.128;2024-02-21T03:22:38;100753.56;;;8.97
24740;BMP280;45234;48.148;17.128;2024-02-21T03:25:05;100751.44;;;8.92
24740;BMP280;45234;48.148;17.128;2024-02-21T03:27:39;100753.53;;;8.88
24740;BMP280;45234;48.148;17.128;2024-02-21T03:30:07;100759.38;;;8.82
24740;BMP280;45234;48.148;17.128;2024-02-21T03:32:34;100749.06;;;8.82
24740;BMP280;45234;48.148;17.128;2024-02-21T03:35:01;100750.16;;;8.88
24740;BMP280;45234;48.148;17.128;2024-02-21T03:37:30;100754.19;;;8.90
24740;BMP280;45234;48.148;17.128;2024-02-21T03:39:57;100752.28;;;8.92
24740;BMP280;45234;48.148;17.128;2024-02-21T03:42:24;100743.53;;;8.93
24740;BMP280;45234;48.148;17.128;2024-02-21T03:44:52;100741.44;;;8.97
24740;BMP280;45234;48.148;17.128;2024-02-21T03:47:18;100750.63;;;9.00
24740;BMP280;45234;48.148;17.128;2024-02-21T03:49:45;100751.94;;;8.95
24740;BMP280;45234;48.148;17.128;2024-02-21T03:52:12;100753.22;;;9.00
24740;BMP280;45234;48.148;17.128;2024-02-21T03:54:39;100754.53;;;9.04
24740;BMP280;45234;48.148;17.128;2024-02-21T03:57:06;100754.53;;;9.04
24740;BMP280;45234;48.148;17.128;2024-02-21T03:59:33;100747.41;;;9.06
24740;BMP280;45234;48.148;17.128;2024-02-21T04:02:00;100747.09;;;9.09
24740;BMP280;45234;48.148;17.128;2024-02-21T04:04:27;100758.88;;;9.11
24740;BMP280;45234;48.148;17.128;2024-02-21T04:06:54;100746.75;;;9.12
24740;BMP280;45234;48.148;17.128;2024-02-21T04:09:21;100753.22;;;9.16
24740;BMP280;45234;48.148;17.128;2024-02-21T04:11:48;100749.03;;;9.15
24740;BMP280;45234;48.148;17.128;2024-02-21T04:14:15;100744.50;;;9.17
24740;BMP280;45234;48.148;17.128;2024-02-21T04:16:42;100748.84;;;9.16
24740;BMP280;45234;48.148;17.128;2024-02-21T04:19:09;100742.88;;;9.16
24740;BMP280;45234;48.148;17.128;2024-02-21T04:21:36;100742.41;;;9.12
24740;BMP280;45234;48.148;17.128;2024-02-21T04:24:03;100736.25;;;9.05
24740;BMP280;45234;48.148;17.128;2024-02-21T04:26:33;100750.97;;;9.05
24740;BMP280;45234;48.148;17.128;2024-02-21T04:29:00;100734.16;;;9.01
24740;BMP280;45234;48.148;17.128;2024-02-21T04:31:28;100739.34;;;8.92
24740;BMP280;45234;48.148;17.128;2024-02-21T04:33:55;100732.53;;;8.91
24740;BMP280;45234;48.148;17.128;2024-02-21T04:36:22;100734.81;;;8.94
24740;BMP280;45234;48.148;17.128;2024-02-21T04:38:50;100738.53;;;9.00
24740;BMP280;45234;48.148;17.128;2024-02-21T04:41:17;100745.78;;;9.05
24740;BMP280;45234;48.148;17.128;2024-02-21T04:43:45;100737.06;;;9.06
24740;BMP280;45234;48.148;17.128;2024-02-21T04:46:12;100735.13;;;9.08
24740;BMP280;45234;48.148;17.128;2024-02-21T04:48:39;100732.38;;;9.09
24740;BMP280;45234;48.148;17.128;2024-02-21T04:51:06;100732.81;;;9.13
24740;BMP280;45234;48.148;17.128;2024-02-21T04:53:32;100730.91;;;9.15
24740;BMP280;45234;48.148;17.128;2024-02-21T04:55:59;100728.47;;;9.13
24740;BMP280;45234;48.148;17.128;2024-02-21T04:58:26;100732.81;;;9.13
24740;BMP280;45234;48.148;17.128;2024-02-21T05:00:53;100730.25;;;9.13
24740;BMP280;45234;48.148;17.128;2024-02-21T05:03:21;100729.28;;;9.14
24740;BMP280;45234;48.148;17.128;2024-02-21T05:05:49;100724.44;;;9.11
24740;BMP280;45234;48.148;17.128;2024-02-21T05:08:16;100726.06;;;9.12
24740;BMP280;45234;48.148;17.128;2024-02-21T05:10:44;100724.13;;;9.14
24740;BMP280;45234;48.148;17.128;2024-02-21T05:13:11;100728.97;;;9.17
24740;BMP280;45234;48.148;17.128;2024-02-21T05:15:38;100723.81;;;9.17
24740;BMP280;45234;48.148;17.128;2024-02-21T05:18:05;100721.38;;;9.15
24740;BMP280;45234;48.148;17.128;2024-02-21T05:20:32;100719.91;;;9.13
24740;BMP280;45234;48.148;17.128;2024-02-21T05:22:59;100720.91;;;9.12
24740;BMP280;45234;48.148;17.128;2024-02-21T05:25:26;100722.69;;;9.11
24740;BMP280;45234;48.148;17.128;2024-02-21T05:27:53;100724.28;;;9.12
24740;BMP280;45234;48.148;17.128;2024-02-21T05:30:20;100727.03;;;9.11
24740;BMP280;45234;48.148;17.128;2024-02-21T05:32:47;100720.25;;;9.02
24740;BMP280;45234;48.148;17.128;2024-02-21T05:35:14;100721.38;;;8.99
24740;BMP280;45234;48.148;17.128;2024-02-21T05:37:41;100717.66;;;9.02
24740;BMP280;45234;48.148;17.128;2024-02-21T05:40:09;100719.94;;;9.05
24740;BMP280;45234;48.148;17.128;2024-02-21T05:42:36;100714.13;;;9.03
24740;BMP280;45234;48.148;17.128;2024-02-21T05:45:03;100717.66;;;9.02
24740;BMP280;45234;48.148;17.128;2024-02-21T05:47:30;100711.53;;;9.03
24740;BMP280;45234;48.148;17.128;2024-02-21T05:49:57;100716.53;;;9.04
24740;BMP280;45234;48.148;17.128;2024-02-21T05:52:24;100719.94;;;9.05
24740;BMP280;45234;48.148;17.128;2024-02-21T05:54:51;100716.38;;;9.06
24740;BMP280;45234;48.148;17.128;2024-02-21T05:57:18;100721.22;;;9.09
24740;BMP280;45234;48.148;17.128;2024-02-21T05:59:45;100706.03;;;9.14
24740;BMP280;45234;48.148;17.128;2024-02-21T06:02:12;100710.06;;;9.16
24740;BMP280;45234;48.148;17.128;2024-02-21T06:04:39;100708.13;;;9.18
24740;BMP280;45234;48.148;17.128;2024-02-21T06:07:06;100700.03;;;9.21
24740;BMP280;45234;48.148;17.128;2024-02-21T06:09:33;100704.03;;;9.24
24740;BMP280;45234;48.148;17.128;2024-02-21T06:12:00;100716.66;;;9.27
24740;BMP280;45234;48.148;17.128;2024-02-21T06:14:27;100709.88;;;9.26
24740;BMP280;45234;48.148;17.128;2024-02-21T06:16:54;100713.28;;;9.26
24740;BMP280;45234;48.148;17.128;2024-02-21T06:19:21;100715.69;;;9.28
24740;BMP280;45234;48.148;17.128;2024-02-21T06:21:48;100718.94;;;9.30
24740;BMP280;45234;48.148;17.128;2024-02-21T06:24:15;100711.78;;;9.32
24740;BMP280;45234;48.148;17.128;2024-02-21T06:26:42;100708.72;;;9.37
24740;BMP280;45234;48.148;17.128;2024-02-21T06:29:11;100708.22;;;9.41
24740;BMP280;45234;48.148;17.128;2024-02-21T06:31:40;100712.09;;;9.45
24740;BMP280;45234;48.148;17.128;2024-02-21T06:34:07;100710.97;;;9.48
24740;BMP280;45234;48.148;17.128;2024-02-21T06:36:35;100713.03;;;9.52
24740;BMP280;45234;48.148;17.128;2024-02-21T06:39:02;100701.84;;;9.60
24740;BMP280;45234;48.148;17.128;2024-02-21T06:41:34;100711.53;;;9.66
24740;BMP280;45234;48.148;17.128;2024-02-21T06:44:01;100709.56;;;9.76
24740;BMP280;45234;48.148;17.128;2024-02-21T06:46:29;100710.00;;;9.88
24740;BMP280;45234;48.148;17.128;2024-02-21T06:48:57;100713.16;;;9.98
24740;BMP280;45234;48.148;17.128;2024-02-21T06:51:24;100710.22;;;10.09
24740;BMP280;45234;48.148;17.128;2024-02-21T06:53:52;100716.44;;;10.23
24740;BMP280;45234;48.148;17.128;2024-02-21T06:56:19;100711.59;;;10.43
24740;BMP280;45234;48.148;17.128;2024-02-21T06:58:46;100716.66;;;10.59
24740;BMP280;45234;48.148;17.128;2024-02-21T07:01:13;100719.63;;;10.71
24740;BMP280;45234;48.148;17.128;2024-02-21T07:03:40;100718.94;;;10.77
24740;BMP280;45234;48.148;17.128;2024-02-21T07:06:07;100715.63;;;10.83
24740;BMP280;45234;48.148;17.128;2024-02-21T07:08:34;100717.00;;;10.93
24740;BMP280;45234;48.148;17.128;2024-02-21T07:11:01;100718.19;;;11.06
24740;BMP280;45234;48.148;17.128;2024-02-21T07:13:28;100719.97;;;11.05
24740;BMP280;45234;48.148;17.128;2024-02-21T07:15:54;100716.81;;;11.10
24740;BMP280;45234;48.148;17.128;2024-02-21T07:18:21;100716.75;;;11.18
24740;BMP280;45234;48.148;17.128;2024-02-21T07:20:48;100715.69;;;11.27
24740;BMP280;45234;48.148;17.128;2024-02-21T07:23:15;100723.03;;;11.38
24740;BMP280;45234;48.148;17.128;2024-02-21T07:25:42;100724.34;;;11.49
24740;BMP280;45234;48.148;17.128;2024-02-21T07:28:09;100717.34;;;11.64
24740;BMP280;45234;48.148;17.128;2024-02-21T07:30:36;100724.41;;;11.85
24740;BMP280;45234;48.148;17.128;2024-02-21T07:33:03;100711.56;;;12.19
24740;BMP280;45234;48.148;17.128;2024-02-21T07:35:30;100718.53;;;12.61
24740;BMP280;45234;48.148;17.128;2024-02-21T07:37:57;100721.06;;;12.83
24740;BMP280;45234;48.148;17.128;2024-02-21T07:40:24;100714.56;;;13.00
24740;BMP280;45234;48.148;17.128;2024-02-21T07:42:51;100720.66;;;13.14
24740;BMP280;45234;48.148;17.128;2024-02-21T07:45:18;100716.88;;;13.23
24740;BMP280;45234;48.148;17.128;2024-02-21T07:47:48;100712.28;;;13.18
24740;BMP280;45234;48.148;17.128;2024-02-21T07:50:16;100709.03;;;13.10
24740;BMP280;45234;48.148;17.128;2024-02-21T07:52:43;100711.84;;;13.15
24740;BMP280;45234;48.148;17.128;2024-02-21T07:55:10;100703.28;;;13.21
24740;BMP280;45234;48.148;17.128;2024-02-21T07:57:37;100703.09;;;13.22
24740;BMP280;45234;48.148;17.128;2024-02-21T08:00:04;100708.69;;;13.26
24740;BMP280;45234;48.148;17.128;2024-02-21T08:02:38;100702.91;;;13.30
24740;BMP280;45234;48.148;17.128;2024-02-21T08:05:05;100695.13;;;13.37
24740;BMP280;45234;48.148;17.128;2024-02-21T08:07:32;100701.63;;;13.54
24740;BMP280;45234;48.148;17.128;2024-02-21T08:09:59;100702.88;;;13.71
24740;BMP280;45234;48.148;17.128;2024-02-21T08:12:27;100691.44;;;13.79
24740;BMP280;45234;48.148;17.128;2024-02-21T08:14:54;100699.88;;;13.81
24740;BMP280;45234;48.148;17.128;2024-02-21T08:17:21;100698.84;;;13.76
24740;BMP280;45234;48.148;17.128;2024-02-21T08:19:48;100695.66;;;13.74
24740;BMP280;45234;48.148;17.128;2024-02-21T08:22:16;100693.25;;;13.72
24740;BMP280;45234;48.148;17.128;2024-02-21T08:24:43;100693.63;;;13.76
24740;BMP280;45234;48.148;17.128;2024-02-21T08:27:10;100685.25;;;13.74
24740;BMP280;45234;48.148;17.128;2024-02-21T08:29:37;100691.66;;;13.78
24740;BMP280;45234;48.148;17.128;2024-02-21T08:32:04;100687.63;;;13.75
24740;BMP280;45234;48.148;17.128;2024-02-21T08:34:31;100682.06;;;13.85
24740;BMP280;45234;48.148;17.128;2024-02-21T08:37:01;100683.25;;;13.82
24740;BMP280;45234;48.148;17.128;2024-02-21T08:39:27;100680.00;;;13.60
24740;BMP280;45234;48.148;17.128;2024-02-21T08:41:57;100686.78;;;13.55
24740;BMP280;45234;48.148;17.128;2024-02-21T08:44:24;100673.00;;;13.67
24740;BMP280;45234;48.148;17.128;2024-02-21T08:46:54;100674.44;;;13.96
24740;BMP280;45234;48.148;17.128;2024-02-21T08:49:22;100673.84;;;14.14
24740;BMP280;45234;48.148;17.128;2024-02-21T08:51:49;100669.22;;;14.10
24740;BMP280;45234;48.148;17.128;2024-02-21T08:54:16;100670.03;;;14.10
24740;BMP280;45234;48.148;17.128;2024-02-21T08:56:44;100658.41;;;14.06
24740;BMP280;45234;48.148;17.128;2024-02-21T08:59:10;100670.22;;;14.08
24740;BMP280;45234;48.148;17.128;2024-02-21T09:01:38;100669.63;;;14.26
24740;BMP280;45234;48.148;17.128;2024-02-21T09:04:05;100677.03;;;14.36
24740;BMP280;45234;48.148;17.128;2024-02-21T09:06:32;100675.19;;;14.69
24740;BMP280;45234;48.148;17.128;2024-02-21T09:09:00;100668.53;;;14.87
24740;BMP280;45234;48.148;17.128;2024-02-21T09:11:27;100670.41;;;15.18
24740;BMP280;45234;48.148;17.128;2024-02-21T09:13:55;100660.69;;;15.63
24740;BMP280;45234;48.148;17.128;2024-02-21T09:16:22;100658.97;;;15.81
24740;BMP280;45234;48.148;17.128;2024-02-21T09:18:50;100658.28;;;15.93
24740;BMP280;45234;48.148;17.128;2024-02-21T09:21:17;100667.19;;;15.85
24740;BMP280;45234;48.148;17.128;2024-02-21T09:23:45;100663.19;;;15.82
24740;BMP280;45234;48.148;17.128;2024-02-21T09:26:12;100661.50;;;15.95
24740;BMP280;45234;48.148;17.128;2024-02-21T09:28:43;100665.50;;;15.72
24740;BMP280;45234;48.148;17.128;2024-02-21T09:31:11;100666.69;;;15.70
24740;BMP280;45234;48.148;17.128;2024-02-21T09:33:38;100669.16;;;15.58
24740;BMP280;45234;48.148;17.128;2024-02-21T09:36:06;100666.09;;;15.36
24740;BMP280;45234;48.148;17.128;2024-02-21T09:38:35;100659.72;;;15.26
24740;BMP280;45234;48.148;17.128;2024-02-21T09:41:17;100658.19;;;15.11
24740;BMP280;45234;48.148;17.128;2024-02-21T09:43:52;100655.34;;;15.20
24740;BMP280;45234;48.148;17.128;2024-02-21T09:46:55;100650.44;;;14.92
24740;BMP280;45234;48.148;17.128;2024-02-21T09:49:32;100647.81;;;14.92
24740;BMP280;45234;48.148;17.128;2024-02-21T09:52:01;100657.81;;;14.95
24740;BMP280;45234;48.148;17.128;2024-02-21T09:54:35;100648.31;;;14.75
24740;BMP280;45234;48.148;17.128;2024-02-21T09:57:07;100649.34;;;14.55
24740;BMP280;45234;48.148;17.128;2024-02-21T09:59:34;100651.19;;;14.28
24740;BMP280;45234;48.148;17.128;2024-02-21T10:02:01;100635.13;;;14.11
24740;BMP280;45234;48.148;17.128;2024-02-21T10:04:30;100642.16;;;13.71
24740;BMP280;45234;48.148;17.128;2024-02-21T10:06:57;100649.72;;;13.53
24740;BMP280;45234;48.148;17.128;2024-02-21T10:09:26;100635.66;;;13.41
24740;BMP280;45234;48.148;17.128;2024-02-21T10:12:08;100631.41;;;13.26
24740;BMP280;45234;48.148;17.128;2024-02-21T10:14:36;100621.78;;;13.27
24740;BMP280;45234;48.148;17.128;2024-02-21T10:17:03;100625.03;;;13.29
24740;BMP280;45234;48.148;17.128;2024-02-21T10:19:36;100618.56;;;13.25
24740;BMP280;45234;48.148;17.128;2024-02-21T10:22:06;100615.97;;;13.25
24740;BMP280;45234;48.148;17.128;2024-02-21T10:24:36;100618.59;;;13.31
24740;BMP280;45234;48.148;17.128;2024-02-21T10:27:06;100616.03;;;13.38
24740;BMP280;45234;48.148;17.128;2024-02-21T10:29:40;100599.41;;;13.46
24740;BMP280;45234;48.148;17.128;2024-02-21T10:32:15;100601.81;;;13.47
24740;BMP280;45234;48.148;17.128;2024-02-21T10:34:42;100593.81;;;13.68
24740;BMP280;45234;48.148;17.128;2024-02-21T10:37:11;100595.44;;;13.76
24740;BMP280;45234;48.148;17.128;2024-02-21T10:39:40;100592.63;;;13.78
24740;BMP280;45234;48.148;17.128;2024-02-21T10:42:11;100589.06;;;13.92
24740;BMP280;45234;48.148;17.128;2024-02-21T10:44:40;100593.41;;;14.18
24740;BMP280;45234;48.148;17.128;2024-02-21T10:47:10;100591.41;;;14.26
24740;BMP280;45234;48.148;17.128;2024-02-21T10:49:39;100590.97;;;14.36
24740;BMP280;45234;48.148;17.128;2024-02-21T10:52:29;100574.75;;;14.34
24740;BMP280;45234;48.148;17.128;2024-02-21T10:55:09;100570.09;;;14.42
24740;BMP280;45234;48.148;17.128;2024-02-21T10:57:38;100572.03;;;14.67
24740;BMP280;45234;48.148;17.128;2024-02-21T11:00:05;100568.34;;;14.81
24740;BMP280;45234;48.148;17.128;2024-02-21T11:02:35;100557.78;;;15.07
24740;BMP280;45234;48.148;17.128;2024-02-21T11:05:03;100561.00;;;15.09
24740;BMP280;45234;48.148;17.128;2024-02-21T11:07:32;100551.38;;;15.03
24740;BMP280;45234;48.148;17.128;2024-02-21T11:10:01;100547.97;;;15.03
24740;BMP280;45234;48.148;17.128;2024-02-21T11:12:33;100557.84;;;14.94
24740;BMP280;45234;48.148;17.128;2024-02-21T11:15:06;100555.00;;;15.02
24740;BMP280;45234;48.148;17.128;2024-02-21T11:17:33;100543.94;;;15.00
24740;BMP280;45234;48.148;17.128;2024-02-21T11:20:15;100548.84;;;15.22
24740;BMP280;45234;48.148;17.128;2024-02-21T11:22:43;100541.13;;;15.40
24740;BMP280;45234;48.148;17.128;2024-02-21T11:25:11;100538.38;;;15.53
24740;BMP280;45234;48.148;17.128;2024-02-21T11:27:46;100529.81;;;15.64
24740;BMP280;45234;48.148;17.128;2024-02-21T11:30:13;100517.53;;;15.71
24740;BMP280;45234;48.148;17.128;2024-02-21T11:32:41;100518.53;;;15.88
24740;BMP280;45234;48.148;17.128;2024-02-21T11:35:08;100517.81;;;16.00
24740;BMP280;45234;48.148;17.128;2024-02-21T11:37:46;100515.59;;;16.03
24740;BMP280;45234;48.148;17.128;2024-02-21T11:40:13;100516.78;;;16.01
24740;BMP280;45234;48.148;17.128;2024-02-21T11:42:40;100521.53;;;15.92
24740;BMP280;45234;48.148;17.128;2024-02-21T11:45:07;100522.03;;;15.82
24740;BMP280;45234;48.148;17.128;2024-02-21T11:47:37;100514.91;;;15.90
24740;BMP280;45234;48.148;17.128;2024-02-21T11:50:12;100512.59;;;15.81
24740;BMP280;45234;48.148;17.128;2024-02-21T11:52:42;100507.44;;;15.93
24740;BMP280;45234;48.148;17.128;2024-02-21T11:55:09;100501.22;;;15.94
24740;BMP280;45234;48.148;17.128;2024-02-21T11:57:38;100501.72;;;16.03
24740;BMP280;45234;48.148;17.128;2024-02-21T12:00:15;100488.09;;;16.12
24740;BMP280;45234;48.148;17.128;2024-02-21T12:02:44;100493.56;;;16.11
24740;BMP280;45234;48.148;17.128;2024-02-21T12:05:13;100485.88;;;15.98
24740;BMP280;45234;48.148;17.128;2024-02-21T12:07:41;100483.41;;;16.03
24740;BMP280;45234;48.148;17.128;2024-02-21T12:10:11;100472.84;;;16.09
24740;BMP280;45234;48.148;17.128;2024-02-21T12:12:39;100473.34;;;16.18
24740;BMP280;45234;48.148;17.128;2024-02-21T12:15:07;100472.34;;;16.19
24740;BMP280;45234;48.148;17.128;2024-02-21T12:17:35;100454.25;;;16.17
24740;BMP280;45234;48.148;17.128;2024-02-21T12:20:06;100457.09;;;15.98
24740;BMP280;45234;48.148;17.128;2024-02-21T12:22:42;100457.88;;;15.80
24740;BMP280;45234;48.148;17.128;2024-02-21T12:25:19;100457.66;;;15.63
24740;BMP280;45234;48.148;17.128;2024-02-21T12:27:49;100442.91;;;15.69
24740;BMP280;45234;48.148;17.128;2024-02-21T12:30:16;100449.56;;;15.71
24740;BMP280;45234;48.148;17.128;2024-02-21T12:32:43;100444.72;;;15.68
24740;BMP280;45234;48.148;17.128;2024-02-21T12:35:11;100448.38;;;15.67
24740;BMP280;45234;48.148;17.128;2024-02-21T12:37:38;100438.94;;;15.66
24740;BMP280;45234;48.148;17.128;2024-02-21T12:40:08;100440.41;;;15.62
24740;BMP280;45234;48.148;17.128;2024-02-21T12:42:35;100433.13;;;15.64
24740;BMP280;45234;48.148;17.128;2024-02-21T12:45:03;100429.84;;;15.69
24740;BMP280;45234;48.148;17.128;2024-02-21T12:47:30;100425.50;;;15.63
24740;BMP280;45234;48.148;17.128;2024-02-21T12:49:57;100423.16;;;15.61
24740;BMP280;45234;48.148;17.128;2024-02-21T12:52:25;100420.13;;;15.58
24740;BMP280;45234;48.148;17.128;2024-02-21T12:54:52;100412.94;;;15.53
24740;BMP280;45234;48.148;17.128;2024-02-21T12:57:18;100410.78;;;15.50
24740;BMP280;45234;48.148;17.128;2024-02-21T12:59:46;100404.31;;;15.34
24740;BMP280;45234;48.148;17.128;2024-02-21T13:02:13;100405.75;;;15.30
24740;BMP280;45234;48.148;17.128;2024-02-21T13:04:40;100402.16;;;15.25
24740;BMP280;45234;48.148;17.128;2024-02-21T13:07:08;100398.53;;;15.26
24740;BMP280;45234;48.148;17.128;2024-02-21T13:09:35;100396.13;;;15.24
24740;BMP280;45234;48.148;17.128;2024-02-21T13:12:02;100395.34;;;15.24
24740;BMP280;45234;48.148;17.128;2024-02-21T13:14:29;100393.38;;;15.19
24740;BMP280;45234;48.148;17.128;2024-02-21T13:16:57;100382.38;;;14.92
24740;BMP280;45234;48.148;17.128;2024-02-21T13:19:24;100382.78;;;14.89
24740;BMP280;45234;48.148;17.128;2024-02-21T13:21:51;100383.81;;;14.88
24740;BMP280;45234;48.148;17.128;2024-02-21T13:24:18;100383.38;;;14.91
24740;BMP280;45234;48.148;17.128;2024-02-21T13:26:45;100376.31;;;14.98
24740;BMP280;45234;48.148;17.128;2024-02-21T13:29:12;100383.44;;;15.09
24740;BMP280;45234;48.148;17.128;2024-02-21T13:31:39;100392.22;;;15.15
24740;BMP280;45234;48.148;17.128;2024-02-21T13:34:06;100380.16;;;15.14
24740;BMP280;45234;48.148;17.128;2024-02-21T13:36:37;100382.56;;;15.15
24740;BMP280;45234;48.148;17.128;2024-02-21T13:39:04;100386.84;;;15.10
24740;BMP280;45234;48.148;17.128;2024-02-21T13:41:35;100387.25;;;15.07
24740;BMP280;45234;48.148;17.128;2024-02-21T13:44:02;100385.47;;;15.07
24740;BMP280;45234;48.148;17.128;2024-02-21T13:46:30;100378.63;;;15.06
24740;BMP280;45234;48.148;17.128;2024-02-21T13:49:04;100377.75;;;14.94
24740;BMP280;45234;48.148;17.128;2024-02-21T13:51:35;100373.94;;;14.90
24740;BMP280;45234;48.148;17.128;2024-02-21T13:54:03;100368.88;;;14.95
24740;BMP280;45234;48.148;17.128;2024-02-21T13:56:31;100366.22;;;15.02